Cottbus, Germany

3:51 PM CEST on August 02, 2015 (GMT +0200)
Cottbus-Schmellwitz | | Change Station
CLOSE
Current Station
Personal Weather Station
Location: Cottbus, Brandenburg
Elevation: 223 ft
Nearby Weather Stations

Elev 223 ft 51.78 °N, 14.33 °E | Updated 20 seconds ago

Partly Cloudy
Partly Cloudy
85.5 °F
Feels Like 83 °F
N
0.0
Wind Variable Wind from WNW
Gusts 8.0 mph

Today
High -- | Low -- °F
--% Chance of Precip.
Yesterday
High -- | Low -- °F
Precip. -- in
5:26 AM 8:50 PM
Waning Gibbous, 94% visible
Pressure 30.06 in
Visibility 6.2 miles
Clouds Few 8000 ft
Heat Index 83 °F
Dew Point 51 °F
Humidity 31%
Rainfall 0.00 in
Snow Depth Not available.
UV 6 out of 12
Pollen Not available.
Air Quality Not available.
Flu Activity Not available.
METAR ETSH 021320Z 32005KT 9999 FEW080 29/07 Q1018 BLU+

More Conditions Fewer Conditions

Pressure 30.06 in
Visibility 6.2 miles
Clouds Few 8000 ft
Heat Index 83 °F
Dew Point 51 °F
Humidity 31%
Rainfall 0.00 in
Snow Depth Not available.
UV 6 out of 12
Pollen Not available.
Air Quality Not available.
Flu Activity Not available.
METAR ETSH 021320Z 32005KT 9999 FEW080 29/07 Q1018 BLU+

More Conditions Fewer Conditions

10-Day Weather Forecast

×

Almanac

Astronomy

Aug. 02, 2015 Rise Set
Actual Time
Civil Twilight
Nautical Twilight
Astronomical Twilight
Moon
Length of Visible Light
Length of Day
Tomorrow will be .
, % of the Moon is Illuminated

Today's Extremes

Country Highs Country Lows

Community

WunderPhotos

Upload Photos

1,843,254 photos uploaded!

WunderBlogs® & News

Nearby

Air Quality

  Air Quality AQ Index Pollutant
Not available.

Snow Depth

Station Depth Elevation

Earthquake Activity

City Distance Mag. Time & Date
Minimum magnitude displayed is 2.5.

Coastal Water Temperatures

Place Temperature

Stations

Nearby Weather Stations

Station Location Temp. Windchill Dew Point Humidity Wind Precip. Elev Updated Type